sensor_id;sensor_type;location;lat;lon;timestamp;temperature;humidity
12268;DHT22;6196;48.398;11.736;2022-12-10T00:01:35;1.60;99.90
12268;DHT22;6196;48.398;11.736;2022-12-10T00:04:03;1.70;99.90
12268;DHT22;6196;48.398;11.736;2022-12-10T00:06:33;1.70;99.90
12268;DHT22;6196;48.398;11.736;2022-12-10T00:09:02;1.70;99.90
12268;DHT22;6196;48.398;11.736;2022-12-10T00:11:30;1.70;99.90
12268;DHT22;6196;48.398;11.736;2022-12-10T00:13:58;1.60;99.90
12268;DHT22;6196;48.398;11.736;2022-12-10T00:16:27;1.60;99.90
12268;DHT22;6196;48.398;11.736;2022-12-10T00:18:54;1.60;99.90
12268;DHT22;6196;48.398;11.736;2022-12-10T00:21:25;1.50;99.90
12268;DHT22;6196;48.398;11.736;2022-12-10T00:23:55;1.50;99.90
12268;DHT22;6196;48.398;11.736;2022-12-10T00:26:24;1.50;99.90
12268;DHT22;6196;48.398;11.736;2022-12-10T00:28:53;1.60;99.90
12268;DHT22;6196;48.398;11.736;2022-12-10T00:31:26;1.50;99.90
12268;DHT22;6196;48.398;11.736;2022-12-10T00:33:56;1.60;99.90
12268;DHT22;6196;48.398;11.736;2022-12-10T00:36:36;1.60;99.90
12268;DHT22;6196;48.398;11.736;2022-12-10T00:39:05;1.60;99.90
12268;DHT22;6196;48.398;11.736;2022-12-10T00:41:32;1.70;99.90
12268;DHT22;6196;48.398;11.736;2022-12-10T00:43:59;1.70;99.90
12268;DHT22;6196;48.398;11.736;2022-12-10T00:46:26;1.70;99.90
12268;DHT22;6196;48.398;11.736;2022-12-10T00:48:54;1.70;99.90
12268;DHT22;6196;48.398;11.736;2022-12-10T00:51:23;1.60;99.90
12268;DHT22;6196;48.398;11.736;2022-12-10T00:53:52;1.70;99.90
12268;DHT22;6196;48.398;11.736;2022-12-10T00:56:23;1.60;99.90
12268;DHT22;6196;48.398;11.736;2022-12-10T00:58:53;1.60;99.90
12268;DHT22;6196;48.398;11.736;2022-12-10T01:01:27;1.60;99.90
12268;DHT22;6196;48.398;11.736;2022-12-10T01:03:56;1.60;99.90
12268;DHT22;6196;48.398;11.736;2022-12-10T01:06:33;1.50;99.90
12268;DHT22;6196;48.398;11.736;2022-12-10T01:09:08;1.60;99.90
12268;DHT22;6196;48.398;11.736;2022-12-10T01:11:39;1.60;99.90
12268;DHT22;6196;48.398;11.736;2022-12-10T01:14:09;1.60;99.90
12268;DHT22;6196;48.398;11.736;2022-12-10T01:16:38;1.60;99.90
12268;DHT22;6196;48.398;11.736;2022-12-10T01:19:05;1.70;99.90
12268;DHT22;6196;48.398;11.736;2022-12-10T01:21:32;1.70;99.90
12268;DHT22;6196;48.398;11.736;2022-12-10T01:23:59;1.70;99.90
12268;DHT22;6196;48.398;11.736;2022-12-10T01:26:30;1.70;99.90
12268;DHT22;6196;48.398;11.736;2022-12-10T01:28:59;1.70;99.90
12268;DHT22;6196;48.398;11.736;2022-12-10T01:31:29;1.70;99.90
12268;DHT22;6196;48.398;11.736;2022-12-10T01:33:58;1.70;99.90
12268;DHT22;6196;48.398;11.736;2022-12-10T01:36:31;1.70;99.90
12268;DHT22;6196;48.398;11.736;2022-12-10T01:39:01;1.70;99.90
12268;DHT22;6196;48.398;11.736;2022-12-10T01:41:38;1.70;99.90
12268;DHT22;6196;48.398;11.736;2022-12-10T01:46:39;1.60;99.90
12268;DHT22;6196;48.398;11.736;2022-12-10T01:49:16;1.70;99.90
12268;DHT22;6196;48.398;11.736;2022-12-10T01:51:47;1.70;99.90
12268;DHT22;6196;48.398;11.736;2022-12-10T01:54:43;1.70;99.90
12268;DHT22;6196;48.398;11.736;2022-12-10T01:57:23;1.70;99.90
12268;DHT22;6196;48.398;11.736;2022-12-10T01:59:55;1.60;99.90
12268;DHT22;6196;48.398;11.736;2022-12-10T02:02:59;1.60;99.90
12268;DHT22;6196;48.398;11.736;2022-12-10T02:05:38;1.60;99.90
12268;DHT22;6196;48.398;11.736;2022-12-10T02:08:21;1.60;99.90
12268;DHT22;6196;48.398;11.736;2022-12-10T02:17:50;1.60;99.90
12268;DHT22;6196;48.398;11.736;2022-12-10T02:20:47;1.60;99.90
12268;DHT22;6196;48.398;11.736;2022-12-10T02:23:23;1.60;99.90
12268;DHT22;6196;48.398;11.736;2022-12-10T02:26:12;1.60;99.90
12268;DHT22;6196;48.398;11.736;2022-12-10T02:29:10;1.60;99.90
12268;DHT22;6196;48.398;11.736;2022-12-10T02:31:43;1.60;99.90
12268;DHT22;6196;48.398;11.736;2022-12-10T02:34:14;1.50;99.90
12268;DHT22;6196;48.398;11.736;2022-12-10T02:36:44;1.60;99.90
12268;DHT22;6196;48.398;11.736;2022-12-10T02:39:16;1.60;99.90
12268;DHT22;6196;48.398;11.736;2022-12-10T02:41:50;1.60;99.90
12268;DHT22;6196;48.398;11.736;2022-12-10T02:44:20;1.50;99.90
12268;DHT22;6196;48.398;11.736;2022-12-10T02:46:50;1.50;99.90
12268;DHT22;6196;48.398;11.736;2022-12-10T02:49:19;1.50;99.90
12268;DHT22;6196;48.398;11.736;2022-12-10T02:51:46;1.40;99.90
12268;DHT22;6196;48.398;11.736;2022-12-10T03:00:20;1.30;99.90
12268;DHT22;6196;48.398;11.736;2022-12-10T03:02:58;1.30;99.90
12268;DHT22;6196;48.398;11.736;2022-12-10T03:08:22;1.40;99.90
12268;DHT22;6196;48.398;11.736;2022-12-10T03:10:59;1.40;99.90
12268;DHT22;6196;48.398;11.736;2022-12-10T03:13:53;1.40;99.90
12268;DHT22;6196;48.398;11.736;2022-12-10T03:16:23;1.40;99.90
12268;DHT22;6196;48.398;11.736;2022-12-10T03:18:56;1.40;99.90
12268;DHT22;6196;48.398;11.736;2022-12-10T03:21:25;1.40;99.90
12268;DHT22;6196;48.398;11.736;2022-12-10T03:23:53;1.40;99.90
12268;DHT22;6196;48.398;11.736;2022-12-10T03:26:21;1.40;99.90
12268;DHT22;6196;48.398;11.736;2022-12-10T03:28:56;1.50;99.90
12268;DHT22;6196;48.398;11.736;2022-12-10T03:31:27;1.50;99.90
12268;DHT22;6196;48.398;11.736;2022-12-10T03:33:56;1.50;99.90
12268;DHT22;6196;48.398;11.736;2022-12-10T03:36:24;1.50;99.90
12268;DHT22;6196;48.398;11.736;2022-12-10T03:38:52;1.40;99.90
12268;DHT22;6196;48.398;11.736;2022-12-10T03:41:19;1.30;99.90
12268;DHT22;6196;48.398;11.736;2022-12-10T03:43:51;1.30;99.90
12268;DHT22;6196;48.398;11.736;2022-12-10T03:46:23;1.40;99.90
12268;DHT22;6196;48.398;11.736;2022-12-10T03:48:52;1.40;99.90
12268;DHT22;6196;48.398;11.736;2022-12-10T03:51:20;1.40;99.90
12268;DHT22;6196;48.398;11.736;2022-12-10T03:53:47;1.40;99.90
12268;DHT22;6196;48.398;11.736;2022-12-10T03:56:17;1.30;99.90
12268;DHT22;6196;48.398;11.736;2022-12-10T03:58:44;1.30;99.90
12268;DHT22;6196;48.398;11.736;2022-12-10T04:01:11;1.30;99.90
12268;DHT22;6196;48.398;11.736;2022-12-10T04:03:39;1.30;99.90
12268;DHT22;6196;48.398;11.736;2022-12-10T04:06:09;1.30;99.90
12268;DHT22;6196;48.398;11.736;2022-12-10T04:08:38;1.30;99.90
12268;DHT22;6196;48.398;11.736;2022-12-10T04:11:07;1.30;99.90
12268;DHT22;6196;48.398;11.736;2022-12-10T04:13:36;1.30;99.90
12268;DHT22;6196;48.398;11.736;2022-12-10T04:16:24;1.40;99.90
12268;DHT22;6196;48.398;11.736;2022-12-10T04:18:56;1.30;99.90
12268;DHT22;6196;48.398;11.736;2022-12-10T04:21:31;1.20;99.90
12268;DHT22;6196;48.398;11.736;2022-12-10T04:24:20;1.30;99.90
12268;DHT22;6196;48.398;11.736;2022-12-10T04:29:45;1.20;99.90
12268;DHT22;6196;48.398;11.736;2022-12-10T04:32:12;1.20;99.90
12268;DHT22;6196;48.398;11.736;2022-12-10T04:34:39;1.30;99.90
12268;DHT22;6196;48.398;11.736;2022-12-10T04:37:07;1.30;99.90
12268;DHT22;6196;48.398;11.736;2022-12-10T04:39:34;1.30;99.90
12268;DHT22;6196;48.398;11.736;2022-12-10T04:42:01;1.30;99.90
12268;DHT22;6196;48.398;11.736;2022-12-10T04:44:28;1.30;99.90
12268;DHT22;6196;48.398;11.736;2022-12-10T04:46:55;1.30;99.90
12268;DHT22;6196;48.398;11.736;2022-12-10T04:49:22;1.30;99.90
12268;DHT22;6196;48.398;11.736;2022-12-10T04:51:50;1.20;99.90
12268;DHT22;6196;48.398;11.736;2022-12-10T04:54:17;1.20;99.90
12268;DHT22;6196;48.398;11.736;2022-12-10T04:56:43;1.20;99.90
12268;DHT22;6196;48.398;11.736;2022-12-10T04:59:11;1.30;99.90
12268;DHT22;6196;48.398;11.736;2022-12-10T05:01:39;1.30;99.90
12268;DHT22;6196;48.398;11.736;2022-12-10T05:04:07;1.30;99.90
12268;DHT22;6196;48.398;11.736;2022-12-10T05:06:36;1.30;99.90
12268;DHT22;6196;48.398;11.736;2022-12-10T05:09:04;1.30;99.90
12268;DHT22;6196;48.398;11.736;2022-12-10T05:11:32;1.30;99.90
12268;DHT22;6196;48.398;11.736;2022-12-10T05:14:00;1.30;99.90
12268;DHT22;6196;48.398;11.736;2022-12-10T05:16:29;1.40;99.90
12268;DHT22;6196;48.398;11.736;2022-12-10T05:18:57;1.40;99.90
12268;DHT22;6196;48.398;11.736;2022-12-10T05:21:26;1.40;99.90
12268;DHT22;6196;48.398;11.736;2022-12-10T05:24:13;1.40;99.90
12268;DHT22;6196;48.398;11.736;2022-12-10T05:26:41;1.50;99.90
12268;DHT22;6196;48.398;11.736;2022-12-10T05:29:08;1.50;99.90
12268;DHT22;6196;48.398;11.736;2022-12-10T05:31:35;1.40;99.90
12268;DHT22;6196;48.398;11.736;2022-12-10T05:34:03;1.40;99.90
12268;DHT22;6196;48.398;11.736;2022-12-10T05:36:31;1.50;99.90
12268;DHT22;6196;48.398;11.736;2022-12-10T05:38:58;1.40;99.90
12268;DHT22;6196;48.398;11.736;2022-12-10T05:41:28;1.40;99.90
12268;DHT22;6196;48.398;11.736;2022-12-10T05:43:57;1.40;99.90
12268;DHT22;6196;48.398;11.736;2022-12-10T05:46:30;1.40;99.90
12268;DHT22;6196;48.398;11.736;2022-12-10T05:49:00;1.40;99.90
12268;DHT22;6196;48.398;11.736;2022-12-10T05:51:32;1.40;99.90
12268;DHT22;6196;48.398;11.736;2022-12-10T05:54:01;1.30;99.90
12268;DHT22;6196;48.398;11.736;2022-12-10T05:56:30;1.30;99.90
12268;DHT22;6196;48.398;11.736;2022-12-10T05:59:01;1.30;99.90
12268;DHT22;6196;48.398;11.736;2022-12-10T06:01:33;1.30;99.90
12268;DHT22;6196;48.398;11.736;2022-12-10T06:04:03;1.30;99.90
12268;DHT22;6196;48.398;11.736;2022-12-10T06:06:36;1.40;99.90
12268;DHT22;6196;48.398;11.736;2022-12-10T06:09:06;1.40;99.90
12268;DHT22;6196;48.398;11.736;2022-12-10T06:11:35;1.40;99.90
12268;DHT22;6196;48.398;11.736;2022-12-10T06:14:02;1.40;99.90
12268;DHT22;6196;48.398;11.736;2022-12-10T06:16:29;1.40;99.90
12268;DHT22;6196;48.398;11.736;2022-12-10T06:18:57;1.50;99.90
12268;DHT22;6196;48.398;11.736;2022-12-10T06:21:24;1.50;99.90
12268;DHT22;6196;48.398;11.736;2022-12-10T06:23:52;1.50;99.90
12268;DHT22;6196;48.398;11.736;2022-12-10T06:26:24;1.50;99.90
12268;DHT22;6196;48.398;11.736;2022-12-10T06:28:53;1.50;99.90
12268;DHT22;6196;48.398;11.736;2022-12-10T06:31:21;1.50;99.90
12268;DHT22;6196;48.398;11.736;2022-12-10T06:33:49;1.50;99.90
12268;DHT22;6196;48.398;11.736;2022-12-10T06:36:17;1.50;99.90
12268;DHT22;6196;48.398;11.736;2022-12-10T06:38:44;1.50;99.90
12268;DHT22;6196;48.398;11.736;2022-12-10T06:41:14;1.50;99.90
12268;DHT22;6196;48.398;11.736;2022-12-10T06:43:41;1.60;99.90
12268;DHT22;6196;48.398;11.736;2022-12-10T06:46:11;1.50;99.90
12268;DHT22;6196;48.398;11.736;2022-12-10T06:48:39;1.50;99.90
12268;DHT22;6196;48.398;11.736;2022-12-10T06:51:07;1.50;99.90
12268;DHT22;6196;48.398;11.736;2022-12-10T06:53:36;1.50;99.90
12268;DHT22;6196;48.398;11.736;2022-12-10T06:56:05;1.40;99.90
12268;DHT22;6196;48.398;11.736;2022-12-10T06:58:33;1.50;99.90
12268;DHT22;6196;48.398;11.736;2022-12-10T07:01:06;1.50;99.90
12268;DHT22;6196;48.398;11.736;2022-12-10T07:03:38;1.40;99.90
12268;DHT22;6196;48.398;11.736;2022-12-10T07:06:07;1.40;99.90
12268;DHT22;6196;48.398;11.736;2022-12-10T07:08:35;1.40;99.90
12268;DHT22;6196;48.398;11.736;2022-12-10T07:11:04;1.40;99.90
12268;DHT22;6196;48.398;11.736;2022-12-10T07:13:32;1.40;99.90
12268;DHT22;6196;48.398;11.736;2022-12-10T07:15:59;1.50;99.90
12268;DHT22;6196;48.398;11.736;2022-12-10T07:18:27;1.50;99.90
12268;DHT22;6196;48.398;11.736;2022-12-10T07:20:54;1.50;99.90
12268;DHT22;6196;48.398;11.736;2022-12-10T07:23:21;1.50;99.90
12268;DHT22;6196;48.398;11.736;2022-12-10T07:25:48;1.60;99.90
12268;DHT22;6196;48.398;11.736;2022-12-10T07:28:15;1.50;99.90
12268;DHT22;6196;48.398;11.736;2022-12-10T07:30:42;1.50;99.90
12268;DHT22;6196;48.398;11.736;2022-12-10T07:33:09;1.50;99.90
12268;DHT22;6196;48.398;11.736;2022-12-10T07:35:38;1.50;99.90
12268;DHT22;6196;48.398;11.736;2022-12-10T07:38:14;1.60;99.90
12268;DHT22;6196;48.398;11.736;2022-12-10T07:40:41;1.60;99.90
12268;DHT22;6196;48.398;11.736;2022-12-10T07:43:07;1.70;99.90
12268;DHT22;6196;48.398;11.736;2022-12-10T07:45:34;1.70;99.90
12268;DHT22;6196;48.398;11.736;2022-12-10T07:48:02;1.70;99.90
12268;DHT22;6196;48.398;11.736;2022-12-10T07:50:28;1.70;99.90
12268;DHT22;6196;48.398;11.736;2022-12-10T07:52:55;1.70;99.90
12268;DHT22;6196;48.398;11.736;2022-12-10T07:55:22;1.70;99.90
12268;DHT22;6196;48.398;11.736;2022-12-10T07:57:49;1.70;99.90
12268;DHT22;6196;48.398;11.736;2022-12-10T08:00:16;1.70;99.90
12268;DHT22;6196;48.398;11.736;2022-12-10T08:02:43;1.70;99.90
12268;DHT22;6196;48.398;11.736;2022-12-10T08:05:10;1.60;99.90
12268;DHT22;6196;48.398;11.736;2022-12-10T08:07:37;1.70;99.90
12268;DHT22;6196;48.398;11.736;2022-12-10T08:10:04;1.70;99.90
12268;DHT22;6196;48.398;11.736;2022-12-10T08:12:32;1.70;99.90
12268;DHT22;6196;48.398;11.736;2022-12-10T08:14:59;1.70;99.90
12268;DHT22;6196;48.398;11.736;2022-12-10T08:17:25;1.80;99.90
12268;DHT22;6196;48.398;11.736;2022-12-10T08:19:55;1.90;99.90
12268;DHT22;6196;48.398;11.736;2022-12-10T08:22:21;2.00;99.90
12268;DHT22;6196;48.398;11.736;2022-12-10T08:24:48;2.10;99.90
12268;DHT22;6196;48.398;11.736;2022-12-10T08:27:15;2.10;99.90
12268;DHT22;6196;48.398;11.736;2022-12-10T08:29:42;2.00;99.90
12268;DHT22;6196;48.398;11.736;2022-12-10T08:32:09;2.00;99.90
12268;DHT22;6196;48.398;11.736;2022-12-10T08:34:36;2.10;99.90
12268;DHT22;6196;48.398;11.736;2022-12-10T08:37:03;2.10;99.90
12268;DHT22;6196;48.398;11.736;2022-12-10T08:39:37;2.10;99.90
12268;DHT22;6196;48.398;11.736;2022-12-10T08:42:04;2.20;99.90
12268;DHT22;6196;48.398;11.736;2022-12-10T08:44:31;2.10;99.90
12268;DHT22;6196;48.398;11.736;2022-12-10T08:46:58;2.10;99.90
12268;DHT22;6196;48.398;11.736;2022-12-10T08:49:25;2.20;99.90
12268;DHT22;6196;48.398;11.736;2022-12-10T08:51:52;2.00;99.90
12268;DHT22;6196;48.398;11.736;2022-12-10T08:54:18;2.00;99.90
12268;DHT22;6196;48.398;11.736;2022-12-10T08:56:45;2.10;99.90
12268;DHT22;6196;48.398;11.736;2022-12-10T08:59:12;2.20;99.90
12268;DHT22;6196;48.398;11.736;2022-12-10T09:01:39;2.30;99.90
12268;DHT22;6196;48.398;11.736;2022-12-10T09:04:06;2.30;99.90
12268;DHT22;6196;48.398;11.736;2022-12-10T09:06:33;2.30;99.90
12268;DHT22;6196;48.398;11.736;2022-12-10T09:09:00;2.30;99.90
12268;DHT22;6196;48.398;11.736;2022-12-10T09:11:31;2.30;99.90
12268;DHT22;6196;48.398;11.736;2022-12-10T09:13:59;2.20;99.90
12268;DHT22;6196;48.398;11.736;2022-12-10T09:16:31;2.10;99.90
12268;DHT22;6196;48.398;11.736;2022-12-10T09:19:00;2.10;99.90
12268;DHT22;6196;48.398;11.736;2022-12-10T09:21:28;2.10;99.90
12268;DHT22;6196;48.398;11.736;2022-12-10T09:23:57;2.10;99.90
12268;DHT22;6196;48.398;11.736;2022-12-10T09:26:25;2.10;99.90
12268;DHT22;6196;48.398;11.736;2022-12-10T09:28:52;2.20;99.90
12268;DHT22;6196;48.398;11.736;2022-12-10T09:31:21;2.20;99.90
12268;DHT22;6196;48.398;11.736;2022-12-10T09:33:50;2.30;99.90
12268;DHT22;6196;48.398;11.736;2022-12-10T09:36:19;2.30;99.90
12268;DHT22;6196;48.398;11.736;2022-12-10T09:38:47;2.30;99.90
12268;DHT22;6196;48.398;11.736;2022-12-10T09:46:57;2.30;99.90
12268;DHT22;6196;48.398;11.736;2022-12-10T09:49:50;2.20;99.90
12268;DHT22;6196;48.398;11.736;2022-12-10T09:52:42;2.20;99.90
12268;DHT22;6196;48.398;11.736;2022-12-10T09:55:14;2.20;99.90
12268;DHT22;6196;48.398;11.736;2022-12-10T09:57:46;2.20;99.90
12268;DHT22;6196;48.398;11.736;2022-12-10T10:00:22;2.20;99.90
12268;DHT22;6196;48.398;11.736;2022-12-10T10:02:55;2.20;99.90
12268;DHT22;6196;48.398;11.736;2022-12-10T10:05:37;2.20;99.90
12268;DHT22;6196;48.398;11.736;2022-12-10T10:11:01;2.20;99.90
12268;DHT22;6196;48.398;11.736;2022-12-10T10:13:38;2.20;99.90
12268;DHT22;6196;48.398;11.736;2022-12-10T10:16:26;2.20;99.90
12268;DHT22;6196;48.398;11.736;2022-12-10T10:19:25;2.10;99.90
12268;DHT22;6196;48.398;11.736;2022-12-10T10:21:54;2.20;99.90
12268;DHT22;6196;48.398;11.736;2022-12-10T10:24:42;2.10;99.90
12268;DHT22;6196;48.398;11.736;2022-12-10T10:27:23;2.10;99.90
12268;DHT22;6196;48.398;11.736;2022-12-10T10:29:57;2.10;99.90
12268;DHT22;6196;48.398;11.736;2022-12-10T10:32:30;2.10;99.90
12268;DHT22;6196;48.398;11.736;2022-12-10T10:38:06;2.10;99.90
12268;DHT22;6196;48.398;11.736;2022-12-10T10:40:43;2.20;99.90
12268;DHT22;6196;48.398;11.736;2022-12-10T10:43:23;2.20;99.90
12268;DHT22;6196;48.398;11.736;2022-12-10T10:46:13;2.20;99.90
12268;DHT22;6196;48.398;11.736;2022-12-10T10:48:41;2.20;99.90
12268;DHT22;6196;48.398;11.736;2022-12-10T10:51:21;2.20;99.90
12268;DHT22;6196;48.398;11.736;2022-12-10T10:53:55;2.30;99.90
12268;DHT22;6196;48.398;11.736;2022-12-10T10:56:24;2.20;99.90
12268;DHT22;6196;48.398;11.736;2022-12-10T10:59:00;2.30;99.90
12268;DHT22;6196;48.398;11.736;2022-12-10T11:01:54;2.30;99.90
12268;DHT22;6196;48.398;11.736;2022-12-10T11:04:30;2.20;99.90
12268;DHT22;6196;48.398;11.736;2022-12-10T11:07:19;2.20;99.90
12268;DHT22;6196;48.398;11.736;2022-12-10T11:09:49;2.10;99.90
12268;DHT22;6196;48.398;11.736;2022-12-10T11:15:03;2.30;99.90
12268;DHT22;6196;48.398;11.736;2022-12-10T11:17:55;2.30;99.90
12268;DHT22;6196;48.398;11.736;2022-12-10T11:20:25;2.20;99.90
12268;DHT22;6196;48.398;11.736;2022-12-10T11:22:58;2.30;99.90
12268;DHT22;6196;48.398;11.736;2022-12-10T11:28:38;2.30;99.90
12268;DHT22;6196;48.398;11.736;2022-12-10T11:36:38;2.40;99.90
12268;DHT22;6196;48.398;11.736;2022-12-10T11:39:37;2.50;99.90
12268;DHT22;6196;48.398;11.736;2022-12-10T11:48:08;2.60;99.90
12268;DHT22;6196;48.398;11.736;2022-12-10T11:51:05;2.70;99.90
12268;DHT22;6196;48.398;11.736;2022-12-10T11:56:38;2.70;99.90
12268;DHT22;6196;48.398;11.736;2022-12-10T11:59:18;2.70;99.90
12268;DHT22;6196;48.398;11.736;2022-12-10T12:02:42;2.70;99.90
12268;DHT22;6196;48.398;11.736;2022-12-10T12:05:30;2.70;99.90
12268;DHT22;6196;48.398;11.736;2022-12-10T12:14:48;2.80;99.90
12268;DHT22;6196;48.398;11.736;2022-12-10T12:17:28;2.90;99.90
12268;DHT22;6196;48.398;11.736;2022-12-10T12:20:02;3.00;99.90
12268;DHT22;6196;48.398;11.736;2022-12-10T12:22:35;3.00;99.90
12268;DHT22;6196;48.398;11.736;2022-12-10T12:25:26;3.00;99.90
12268;DHT22;6196;48.398;11.736;2022-12-10T12:28:16;2.90;99.90
12268;DHT22;6196;48.398;11.736;2022-12-10T12:31:08;2.90;99.90
12268;DHT22;6196;48.398;11.736;2022-12-10T12:36:21;2.80;99.90
12268;DHT22;6196;48.398;11.736;2022-12-10T12:44:36;2.70;99.90
12268;DHT22;6196;48.398;11.736;2022-12-10T12:47:26;2.70;99.90
12268;DHT22;6196;48.398;11.736;2022-12-10T12:49:59;2.80;99.90
12268;DHT22;6196;48.398;11.736;2022-12-10T12:52:43;2.80;99.90
12268;DHT22;6196;48.398;11.736;2022-12-10T12:55:22;2.60;99.90
12268;DHT22;6196;48.398;11.736;2022-12-10T13:01:40;2.60;99.90
12268;DHT22;6196;48.398;11.736;2022-12-10T13:04:31;2.60;99.90
12268;DHT22;6196;48.398;11.736;2022-12-10T13:09:44;2.40;99.90
12268;DHT22;6196;48.398;11.736;2022-12-10T13:15:20;2.30;99.90
12268;DHT22;6196;48.398;11.736;2022-12-10T13:28:29;2.20;99.90
12268;DHT22;6196;48.398;11.736;2022-12-10T13:39:32;2.00;99.90
12268;DHT22;6196;48.398;11.736;2022-12-10T13:45:16;1.90;99.90
12268;DHT22;6196;48.398;11.736;2022-12-10T13:47:54;1.90;99.90
12268;DHT22;6196;48.398;11.736;2022-12-10T13:56:28;1.90;99.90
12268;DHT22;6196;48.398;11.736;2022-12-10T14:08:05;1.80;99.90
12268;DHT22;6196;48.398;11.736;2022-12-10T14:10:36;1.70;99.90
12268;DHT22;6196;48.398;11.736;2022-12-10T14:13:05;1.80;99.90
12268;DHT22;6196;48.398;11.736;2022-12-10T14:15:35;1.80;99.90
12268;DHT22;6196;48.398;11.736;2022-12-10T14:18:12;1.80;99.90
12268;DHT22;6196;48.398;11.736;2022-12-10T14:20:46;1.70;99.90
12268;DHT22;6196;48.398;11.736;2022-12-10T14:23:25;1.70;99.90
12268;DHT22;6196;48.398;11.736;2022-12-10T14:26:30;1.70;99.90
12268;DHT22;6196;48.398;11.736;2022-12-10T14:31:42;1.70;99.90
12268;DHT22;6196;48.398;11.736;2022-12-10T14:34:16;1.70;99.90
12268;DHT22;6196;48.398;11.736;2022-12-10T14:36:50;1.70;99.90
12268;DHT22;6196;48.398;11.736;2022-12-10T14:39:27;1.70;99.90
12268;DHT22;6196;48.398;11.736;2022-12-10T14:41:59;1.70;99.90
12268;DHT22;6196;48.398;11.736;2022-12-10T14:44:27;1.70;99.90
12268;DHT22;6196;48.398;11.736;2022-12-10T14:47:15;1.70;99.90
12268;DHT22;6196;48.398;11.736;2022-12-10T14:49:47;1.60;99.90
12268;DHT22;6196;48.398;11.736;2022-12-10T14:52:24;1.60;99.90
12268;DHT22;6196;48.398;11.736;2022-12-10T14:54:59;1.60;99.90
12268;DHT22;6196;48.398;11.736;2022-12-10T14:57:33;1.60;99.90
12268;DHT22;6196;48.398;11.736;2022-12-10T15:00:17;1.60;99.90
12268;DHT22;6196;48.398;11.736;2022-12-10T15:02:51;1.60;99.90
12268;DHT22;6196;48.398;11.736;2022-12-10T15:08:15;1.50;99.90
12268;DHT22;6196;48.398;11.736;2022-12-10T15:10:46;1.50;99.90
12268;DHT22;6196;48.398;11.736;2022-12-10T15:13:39;1.50;99.90
12268;DHT22;6196;48.398;11.736;2022-12-10T15:16:19;1.60;99.90
12268;DHT22;6196;48.398;11.736;2022-12-10T15:18:48;1.60;99.90
12268;DHT22;6196;48.398;11.736;2022-12-10T15:21:20;1.60;99.90
12268;DHT22;6196;48.398;11.736;2022-12-10T15:23:50;1.50;99.90
12268;DHT22;6196;48.398;11.736;2022-12-10T15:28:50;1.50;99.90
12268;DHT22;6196;48.398;11.736;2022-12-10T15:31:30;1.40;99.90
12268;DHT22;6196;48.398;11.736;2022-12-10T15:34:07;1.40;99.90
12268;DHT22;6196;48.398;11.736;2022-12-10T15:36:43;1.40;99.90
12268;DHT22;6196;48.398;11.736;2022-12-10T15:39:20;1.40;99.90
12268;DHT22;6196;48.398;11.736;2022-12-10T15:41:59;1.40;99.90
12268;DHT22;6196;48.398;11.736;2022-12-10T15:44:36;1.40;99.90
12268;DHT22;6196;48.398;11.736;2022-12-10T15:49:49;1.30;99.90
12268;DHT22;6196;48.398;11.736;2022-12-10T15:54:57;1.20;99.90
12268;DHT22;6196;48.398;11.736;2022-12-10T15:57:27;1.20;99.90
12268;DHT22;6196;48.398;11.736;2022-12-10T15:59:56;1.20;99.90
12268;DHT22;6196;48.398;11.736;2022-12-10T16:02:40;1.20;99.90
12268;DHT22;6196;48.398;11.736;2022-12-10T16:05:22;1.10;99.90
12268;DHT22;6196;48.398;11.736;2022-12-10T16:08:05;1.00;99.90
12268;DHT22;6196;48.398;11.736;2022-12-10T16:10:41;1.10;99.90
12268;DHT22;6196;48.398;11.736;2022-12-10T16:13:18;1.00;99.90
12268;DHT22;6196;48.398;11.736;2022-12-10T16:16:10;0.90;99.90
12268;DHT22;6196;48.398;11.736;2022-12-10T16:18:39;0.90;99.90
12268;DHT22;6196;48.398;11.736;2022-12-10T16:21:07;0.80;99.90
12268;DHT22;6196;48.398;11.736;2022-12-10T16:23:37;0.70;99.90
12268;DHT22;6196;48.398;11.736;2022-12-10T16:28:45;0.70;99.90
12268;DHT22;6196;48.398;11.736;2022-12-10T16:31:16;0.70;99.90
12268;DHT22;6196;48.398;11.736;2022-12-10T16:33:45;0.70;99.90
12268;DHT22;6196;48.398;11.736;2022-12-10T16:36:13;0.70;99.90
12268;DHT22;6196;48.398;11.736;2022-12-10T16:38:40;0.60;99.90
12268;DHT22;6196;48.398;11.736;2022-12-10T16:41:19;0.60;99.90
12268;DHT22;6196;48.398;11.736;2022-12-10T16:43:48;0.60;99.90
12268;DHT22;6196;48.398;11.736;2022-12-10T16:46:15;0.50;99.90
12268;DHT22;6196;48.398;11.736;2022-12-10T16:48:42;0.50;99.90
12268;DHT22;6196;48.398;11.736;2022-12-10T16:51:15;0.60;99.90
12268;DHT22;6196;48.398;11.736;2022-12-10T16:53:58;0.60;99.90
12268;DHT22;6196;48.398;11.736;2022-12-10T16:56:25;0.50;99.90
12268;DHT22;6196;48.398;11.736;2022-12-10T16:58:52;0.60;99.90
12268;DHT22;6196;48.398;11.736;2022-12-10T17:01:21;0.60;99.90
12268;DHT22;6196;48.398;11.736;2022-12-10T17:03:51;0.60;99.90
12268;DHT22;6196;48.398;11.736;2022-12-10T17:06:19;0.60;99.90
12268;DHT22;6196;48.398;11.736;2022-12-10T17:08:46;0.50;99.90
12268;DHT22;6196;48.398;11.736;2022-12-10T17:14:21;0.60;99.90
12268;DHT22;6196;48.398;11.736;2022-12-10T17:17:03;0.60;99.90
12268;DHT22;6196;48.398;11.736;2022-12-10T17:19:33;0.60;99.90
12268;DHT22;6196;48.398;11.736;2022-12-10T17:22:04;0.70;99.90
12268;DHT22;6196;48.398;11.736;2022-12-10T17:24:32;0.70;99.90
12268;DHT22;6196;48.398;11.736;2022-12-10T17:27:05;0.60;99.90
12268;DHT22;6196;48.398;11.736;2022-12-10T17:29:37;0.70;99.90
12268;DHT22;6196;48.398;11.736;2022-12-10T17:32:09;0.60;99.90
12268;DHT22;6196;48.398;11.736;2022-12-10T17:34:38;0.60;99.90
12268;DHT22;6196;48.398;11.736;2022-12-10T17:37:14;0.60;99.90
12268;DHT22;6196;48.398;11.736;2022-12-10T17:39:44;0.60;99.90
12268;DHT22;6196;48.398;11.736;2022-12-10T17:42:11;0.60;99.90
12268;DHT22;6196;48.398;11.736;2022-12-10T17:44:38;0.60;99.90
12268;DHT22;6196;48.398;11.736;2022-12-10T17:47:19;0.60;99.90
12268;DHT22;6196;48.398;11.736;2022-12-10T17:49:47;0.60;99.90
12268;DHT22;6196;48.398;11.736;2022-12-10T17:52:14;0.60;99.90
12268;DHT22;6196;48.398;11.736;2022-12-10T17:54:41;0.60;99.90
12268;DHT22;6196;48.398;11.736;2022-12-10T17:57:15;0.50;99.90
12268;DHT22;6196;48.398;11.736;2022-12-10T17:59:44;0.50;99.90
12268;DHT22;6196;48.398;11.736;2022-12-10T18:02:11;0.50;99.90
12268;DHT22;6196;48.398;11.736;2022-12-10T18:04:39;0.40;99.90
12268;DHT22;6196;48.398;11.736;2022-12-10T18:07:15;0.50;99.90
12268;DHT22;6196;48.398;11.736;2022-12-10T18:09:44;0.50;99.90
12268;DHT22;6196;48.398;11.736;2022-12-10T18:12:11;0.50;99.90
12268;DHT22;6196;48.398;11.736;2022-12-10T18:14:38;0.50;99.90
12268;DHT22;6196;48.398;11.736;2022-12-10T18:17:11;0.50;99.90
12268;DHT22;6196;48.398;11.736;2022-12-10T18:19:39;0.60;99.90
12268;DHT22;6196;48.398;11.736;2022-12-10T18:22:10;0.60;99.90
12268;DHT22;6196;48.398;11.736;2022-12-10T18:24:37;0.60;99.90
12268;DHT22;6196;48.398;11.736;2022-12-10T18:27:04;0.60;99.90
12268;DHT22;6196;48.398;11.736;2022-12-10T18:29:31;0.60;99.90
12268;DHT22;6196;48.398;11.736;2022-12-10T18:31:58;0.60;99.90